• Join FlightAware (Why Join?)
  • Login
  • US Flag 
01:21PM EDT


 

Airport Tracker/Info


-or-


 

Live Flight TrackerFlight Track Log ✈ AAL1071 ✈ 07-Jun-2013 ✈ KBWI - KMIA

Flight Track Log - Related Links

Times and Time Zones

All times are in EDT time to prevent confusion due to time zone crossing. See the AAL1071 flight status page for this flight to view local times or setup timezone preferences in your user account.

Time Position Orientation Groundspeed Altitude Reporting Facility
EDT Latitude Longitude Course Direction KTS MPH feet Rate Location/Type
06:32AM 39.0720 -76.5600 140° Southeast 273 314 5,200  Level FlightAware
06:32AM 39.0420 -76.5300 142° Southeast 273 314 7,000 3,240 Climbing FlightAware
06:33AM 39.0180 -76.5040 140° Southeast 279 321 8,200 2,820 Climbing FlightAware
06:33AM 38.9797 -76.4828 157° South 276 318 9,700 2,820 Climbing FlightAware ADS-B
06:33AM 38.9753 -76.4835 187° South 276 318 9,900 2,760 Climbing FlightAware ADS-B
06:33AM 38.9642 -76.4877 196° South 275 316 10,300 1,920 Climbing FlightAware ADS-B
06:34AM 38.9261 -76.5096 204° Southwest 301 346 11,200 1,980 Climbing FlightAware ADS-B
06:35AM 38.8772 -76.5397 206° Southwest 320 368 12,600 2,400 Climbing FlightAware ADS-B
06:35AM 38.8327 -76.5655 204° Southwest 332 382 14,000 2,640 Climbing FlightAware ADS-B
06:36AM 38.7892 -76.5911 205° Southwest 334 384 15,400 2,580 Climbing FlightAware ADS-B
06:36AM 38.7482 -76.6154 205° Southwest 339 390 16,600 2,340 Climbing FlightAware ADS-B
06:37AM 38.6993 -76.6441 205° Southwest 346 398 17,900 2,100 Climbing FlightAware ADS-B
06:37AM 38.6539 -76.6707 205° Southwest 354 407 18,900 2,100 Climbing FlightAware ADS-B
06:38AM 38.6069 -76.6982 205° Southwest 356 410 20,100 2,220 Climbing FlightAware ADS-B
06:38AM 38.5808 -76.7129 204° Southwest 357 411 20,700 1,920 Climbing FlightAware ADS-B
06:38AM 38.5679 -76.7178 197° South 358 412 20,900 1,560 Climbing FlightAware ADS-B
06:38AM 38.5572 -76.7204 191° South 360 414 21,100 1,800 Climbing FlightAware ADS-B
06:39AM 38.5308 -76.7215 182° South 363 418 21,600 1,620 Climbing FlightAware ADS-B
06:39AM 38.4770 -76.7140 174° South 374 430 22,400 1,560 Climbing FlightAware
06:39AM 38.4532 -76.7111 175° South 375 432 22,800 1,560 Climbing FlightAware ADS-B
06:40AM 38.3750 -76.7005 174° South 381 438 23,900 1,500 Climbing FlightAware ADS-B
06:41AM 38.3071 -76.6915 174° South 381 438 24,900 1,560 Climbing FlightAware ADS-B
06:42AM 38.1790 -76.6750 174° South 391 450 26,800 1,560 Climbing FlightAware
06:43AM 38.1030 -76.6790 182° South 385 443 27,900 900 Climbing FlightAware
06:43AM 38.0390 -76.6900 188° South 393 452 28,000 60 Climbing FlightAware
06:44AM 37.9540 -76.7090 190° South 390 449 28,000  Level FlightAware
06:45AM 37.8820 -76.7310 194° South 388 447 28,000  Level FlightAware
06:45AM 37.8090 -76.7670 201° Southwest 386 444 28,000  Level FlightAware
06:46AM 37.7430 -76.8040 204° Southwest 387 445 28,000  Level FlightAware
06:47AM 37.6740 -76.8470 206° Southwest 387 445 28,000  Level FlightAware
06:47AM 37.6050 -76.8880 205° Southwest 388 447 28,000  Level FlightAware
06:48AM 37.5390 -76.9270 205° Southwest 387 445 28,000  Level FlightAware
06:49AM 37.4760 -76.9650 206° Southwest 386 444 28,000  Level FlightAware
06:50AM 37.4020 -77.0120 207° Southwest 386 444 28,000  Level FlightAware
06:50AM 37.3380 -77.0530 207° Southwest 386 444 28,000  Level FlightAware
06:51AM 37.2690 -77.0980 207° Southwest 387 445 28,000  Level FlightAware
06:52AM 37.2050 -77.1420 209° Southwest 387 445 28,000  Level FlightAware
06:52AM 37.1420 -77.1690 199° South 386 444 28,000  Level FlightAware
06:53AM 37.0780 -77.1830 190° South 380 437 28,000  Level FlightAware
06:54AM 37.0000 -77.2010 190° South 379 436 28,000  Level FlightAware
06:54AM 36.9300 -77.2160 190° South 378 435 28,000  Level FlightAware
06:55AM 36.8560 -77.2310 189° South 378 435 28,000  Level FlightAware
06:56AM 36.8040 -77.2410 189° South 378 435 28,000  Level FlightAware
06:57AM 36.6920 -77.2700 192° South 393 452 28,000  Level FlightAware
06:57AM 36.6150 -77.2870 190° South 394 453 28,000  Level FlightAware
06:58AM 36.5490 -77.3020 190° South 396 456 28,000  Level FlightAware
06:59AM 36.4550 -77.3230 190° South 399 459 28,000  Level FlightAware
06:59AM 36.3830 -77.3390 190° South 401 461 28,000  Level FlightAware
07:00AM 36.3100 -77.3550 190° South 402 463 28,000  Level FlightAware
07:01AM 36.2360 -77.3710 190° South 403 464 28,000  Level FlightAware
07:01AM 36.1520 -77.3890 190° South 403 464 28,000  Level FlightAware
07:02AM 36.0820 -77.4050 190° South 403 464 28,000  Level FlightAware
07:03AM 35.9900 -77.4250 190° South 396 456 28,000  Level FlightAware
07:04AM 35.9030 -77.4440 190° South 396 456 28,000  Level FlightAware
07:04AM 35.8340 -77.4590 190° South 405 466 28,000  Level FlightAware
07:05AM 35.7450 -77.4780 190° South 405 466 28,000  Level FlightAware
07:06AM 35.6690 -77.4940 190° South 396 456 28,000  Level FlightAware
07:07AM 35.5900 -77.5160 193° South 402 463 28,000  Level FlightAware
07:07AM 35.5210 -77.5770 216° Southwest 396 456 28,000  Level FlightAware
07:08AM 35.4440 -77.6500 218° Southwest 394 453 28,000  Level FlightAware
07:09AM 35.3750 -77.7160 218° Southwest 394 453 28,000  Level FlightAware
07:10AM 35.3160 -77.7720 218° Southwest 394 453 28,000  Level FlightAware
07:10AM 35.2710 -77.8150 218° Southwest 394 453 28,000  Level FlightAware
07:11AM 35.2290 -77.8550 218° Southwest 394 453 28,000  Level FlightAware
07:12AM 35.1710 -77.9110 218° Southwest 394 453 28,000  Level FlightAware
07:12AM 35.1270 -77.9530 218° Southwest 394 453 28,000  Level FlightAware
07:14AM 34.9160 -78.1590 219° Southwest 28,000  Level FlightAware
07:15AM 34.8822 -78.1897 219° Southwest 397 457 28,000  Level Washington Center
07:16AM 34.8011 -78.2756 221° Southwest 397 457 28,000  Level Washington Center
07:21AM 34.3710 -78.6780 221° Southwest 387 445 28,000  Level FlightAware
07:22AM 34.3200 -78.7260 218° Southwest 387 445 28,000  Level FlightAware
07:23AM 34.1800 -78.8570 218° Southwest 385 443 28,000  Level FlightAware
07:24AM 34.1220 -78.9110 218° Southwest 384 442 28,000  Level FlightAware
07:24AM 34.0660 -78.9640 218° Southwest 396 456 28,000  Level FlightAware
07:25AM 34.0090 -79.0170 218° Southwest 397 457 28,000  Level FlightAware
07:26AM 33.9490 -79.0720 217° Southwest 397 457 28,000  Level FlightAware
07:26AM 33.8840 -79.1330 218° Southwest 398 458 28,000  Level FlightAware
07:27AM 33.8190 -79.1930 217° Southwest 397 457 28,000  Level FlightAware
07:28AM 33.7600 -79.2480 218° Southwest 396 456 28,000  Level FlightAware
07:29AM 33.7020 -79.3010 217° Southwest 397 457 28,000  Level FlightAware
07:29AM 33.6370 -79.3620 218° Southwest 398 458 28,000  Level FlightAware
07:30AM 33.5780 -79.4150 217° Southwest 400 460 28,000  Level FlightAware
07:31AM 33.5190 -79.4690 217° Southwest 402 463 28,000  Level FlightAware
07:31AM 33.4560 -79.5280 218° Southwest 402 463 28,000  Level FlightAware
07:32AM 33.3860 -79.5920 217° Southwest 401 461 28,000  Level FlightAware
07:33AM 33.3280 -79.6450 217° Southwest 401 461 28,000  Level FlightAware
07:34AM 33.2720 -79.6960 217° Southwest 402 463 28,000  Level FlightAware
07:34AM 33.2100 -79.7520 217° Southwest 403 464 28,000  Level FlightAware
07:35AM 33.1430 -79.8130 217° Southwest 404 465 28,000  Level FlightAware
07:36AM 33.0830 -79.8670 217° Southwest 405 466 28,000  Level FlightAware
07:36AM 33.0160 -79.9280 217° Southwest 404 465 28,000  Level FlightAware
07:37AM 32.9550 -79.9830 217° Southwest 404 465 28,000  Level FlightAware
07:38AM 32.8880 -80.0420 216° Southwest 402 463 28,000  Level FlightAware
07:38AM 32.8270 -80.0870 212° Southwest 402 463 28,000  Level FlightAware
07:39AM 32.7540 -80.1420 212° Southwest 402 463 28,000  Level FlightAware
07:40AM 32.6910 -80.1880 212° Southwest 400 460 28,000  Level FlightAware
07:41AM 32.6210 -80.2400 212° Southwest 400 460 28,000  Level FlightAware
07:41AM 32.5560 -80.2870 211° Southwest 399 459 28,000  Level FlightAware
07:42AM 32.4970 -80.3300 212° Southwest 397 457 28,000  Level FlightAware
07:43AM 32.4250 -80.3830 212° Southwest 396 456 28,000  Level FlightAware
07:43AM 32.3620 -80.4290 212° Southwest 396 456 28,000  Level FlightAware
07:44AM 32.2770 -80.4910 212° Southwest 395 455 28,000  Level FlightAware
07:45AM 32.2200 -80.5320 211° Southwest 395 455 28,000  Level FlightAware
07:46AM 32.1570 -80.5790 212° Southwest 396 456 28,000  Level FlightAware
07:46AM 32.0920 -80.6260 211° Southwest 397 457 28,000  Level FlightAware
07:47AM 32.0240 -80.6750 211° Southwest 397 457 28,000  Level FlightAware
07:48AM 31.9560 -80.7240 211° Southwest 398 458 28,000  Level FlightAware
07:48AM 31.8910 -80.7710 212° Southwest 398 458 28,000  Level FlightAware
07:49AM 31.8230 -80.8200 211° Southwest 399 459 28,000  Level FlightAware
07:50AM 31.7760 -80.8540 212° Southwest 399 459 28,000  Level FlightAware
07:51AM 31.6940 -80.9130 211° Southwest 400 460 28,000  Level FlightAware
07:51AM 31.6310 -80.9490 206° Southwest 402 463 28,000  Level FlightAware
07:52AM 31.5450 -80.9680 191° South 407 468 28,000  Level FlightAware
07:53AM 31.4390 -80.9900 190° South 408 470 28,000  Level FlightAware
07:54AM 31.3490 -81.0090 190° South 410 472 28,000  Level FlightAware
07:55AM 31.2510 -81.0290 190° South 410 472 28,000  Level FlightAware
07:55AM 31.1920 -81.0410 190° South 410 472 28,000  Level FlightAware
07:56AM 31.1330 -81.0530 190° South 410 472 28,000  Level FlightAware
07:57AM 31.0540 -81.0690 190° South 410 472 28,000  Level FlightAware
08:02AM 30.3370 -81.0010 175° South 418 481 28,000  Level FlightAware
08:03AM 30.2650 -80.9890 172° South 419 482 28,000  Level FlightAware
08:04AM 30.1790 -80.9740 171° South 420 483 28,000  Level FlightAware
08:05AM 30.0960 -80.9610 172° South 421 484 28,000  Level FlightAware
08:05AM 29.9930 -80.9440 172° South 420 483 28,000  Level FlightAware
08:06AM 29.9880 -80.9430 170° South 419 482 28,000  Level FlightAware
08:07AM 29.9300 -80.9330 172° South 419 482 28,000  Level FlightAware
08:08AM 29.8510 -80.9210 172° South 419 482 28,000  Level FlightAware
08:08AM 29.7910 -80.9110 172° South 419 482 28,000  Level FlightAware
08:09AM 29.7110 -80.8980 172° South 419 482 28,000  Level FlightAware
08:10AM 29.6510 -80.8880 172° South 419 482 28,000  Level FlightAware
08:11AM 29.3692 -80.8408 172° South 414 476 28,000  Level Jacksonville Center
08:11AM 29.3219 -80.8356 174° South 417 480 28,000  Level Miami Center
08:17AM 28.6860 -80.7290 174° South 420 483 28,000  Level FlightAware
08:18AM 28.5910 -80.7140 172° South 420 483 28,000  Level FlightAware
08:18AM 28.4940 -80.6980 172° South 418 481 28,000  Level FlightAware
08:19AM 28.4260 -80.6870 172° South 405 466 28,000  Level FlightAware
08:20AM 28.3520 -80.6750 172° South 402 463 28,000  Level FlightAware
08:20AM 28.3050 -80.6670 171° South 402 463 28,000  Level FlightAware
08:21AM 28.2100 -80.6520 172° South 400 460 28,000 -180 Level FlightAware
08:22AM 28.1320 -80.6400 172° South 401 461 27,800 -660 Descending FlightAware
08:22AM 28.0590 -80.6190 166° South 412 474 27,100 -720 Descending FlightAware
08:23AM 27.9940 -80.5970 163° South 414 476 26,900 -180 Descending FlightAware
08:24AM 27.9200 -80.5710 163° South 414 476 26,900  Level FlightAware
08:24AM 27.8650 -80.5530 164° South 414 476 26,900  Level FlightAware
08:25AM 27.7900 -80.5270 163° South 414 476 26,900  Level FlightAware
08:26AM 27.7330 -80.5070 163° South 414 476 26,900  Level FlightAware
08:26AM 27.6750 -80.4870 163° South 414 476 26,900 -1,980 Level FlightAware
08:27AM 27.5319 -80.4331 163° South 410 472 24,000 -1,440 Descending Miami Center
08:33AM 26.9120 -80.1800 163° South 359 413 17,500 -1,080 Descending FlightAware
08:34AM 26.8570 -80.1570 160° South 363 418 17,100 -1,980 Descending FlightAware
08:34AM 26.7850 -80.1120 151° Southeast 347 399 14,800 -2,520 Descending FlightAware
08:35AM 26.7400 -80.0810 148° Southeast 344 396 13,900 -1,320 Descending FlightAware
08:36AM 26.6660 -80.0390 153° Southeast 342 394 13,000 -600 Descending FlightAware
08:37AM 26.6010 -80.0300 173° South 336 387 13,000  Level FlightAware
08:37AM 26.5330 -80.0250 176° South 333 383 13,000 -240 Level FlightAware
08:38AM 26.4730 -80.0230 178° South 332 382 12,700 -1,020 Descending FlightAware
08:39AM 26.4110 -80.0200 178° South 335 386 11,700 -1,260 Descending FlightAware
08:39AM 26.3460 -80.0170 178° South 315 362 11,000 -900 Descending FlightAware
08:40AM 26.2860 -80.0150 178° South 292 336 10,500 -780 Descending FlightAware
08:41AM 26.2350 -80.0150 180° South 283 326 10,000 -480 Descending FlightAware
08:41AM 26.2010 -80.0150 180° South 271 312 10,000  Level FlightAware
08:42AM 26.1630 -80.0150 180° South 255 293 10,000 -120 Level FlightAware
08:42AM 26.1280 -80.0150 180° South 256 295 9,900 -1,080 Descending FlightAware
08:42AM 26.1030 -80.0150 180° South 255 293 9,100 -2,340 Descending FlightAware
08:43AM 26.0640 -80.0150 180° South 273 314 7,900 -1,980 Descending FlightAware
08:44AM 26.0260 -80.0150 180° South 257 296 7,100 -1,380 Descending FlightAware
08:44AM 25.9710 -80.0170 182° South 240 276 6,200 -1,200 Descending FlightAware
08:45AM 25.9500 -80.0220 192° South 227 261 5,800 -1,380 Descending FlightAware
08:45AM 25.9180 -80.0290 191° South 214 246 5,000 -1,560 Descending FlightAware
08:45AM 25.9010 -80.0340 195° South 208 239 4,500 -1,620 Descending FlightAware
08:46AM 25.8790 -80.0390 192° South 201 231 3,900 -1,500 Descending FlightAware
08:46AM 25.8540 -80.0440 190° South 191 220 3,200 -1,320 Descending FlightAware
08:47AM 25.8460 -80.0490 209° Southwest 185 213 3,000 -660 Descending FlightAware
08:47AM 25.8370 -80.0630 234° Southwest 174 200 2,900  Descending FlightAware
08:47AM 25.8240 -80.0830 234° Southwest 166 191 3,000 60 Climbing FlightAware
08:48AM 25.8140 -80.1040 242° Southwest 168 193 3,000 -480 Level FlightAware
08:48AM 25.8110 -80.1280 262° West 172 198 2,600 -840 Descending FlightAware
08:49AM 25.8090 -80.1490 264° West 163 188 2,300 -840 Descending FlightAware
08:49AM 25.8080 -80.1690 267° West 152 175 1,900 -840 Descending FlightAware
08:50AM 25.8080 -80.1940 270° West 140 161 1,500 -780 Descending FlightAware
08:50AM 25.8070 -80.2140 267° West 142 163 1,200 -780 Descending FlightAware
08:50AM 25.8060 -80.2230 263° West 137 158 1,000 -900 Descending FlightAware
08:51AM 25.8050 -80.2450 267° West 143 165 600 -840 Descending FlightAware
08:51AM 25.8040 -80.2660 267° West 141 162 200 -840 Descending FlightAware
08:52AM 25.8030 -80.2940 268° West 33 38 -240 Descending FlightAware
08:52AM 25.8020 -80.2950 222° Southwest 26 30  Level FlightAware
08:53AM 25.8000 -80.2950 180° South 16 18  Level FlightAware